createdAt,value
2018-07-07T14:22:50.593Z,17.00
2018-07-07T14:23:50.596Z,19.70
2018-07-07T14:25:45.823Z,20.50
2018-07-07T14:26:45.806Z,21.70
2018-07-07T14:27:45.825Z,22.10
2018-07-07T14:28:45.839Z,24.10
2018-07-07T14:29:45.864Z,23.10
2018-07-07T14:30:45.898Z,22.80
2018-07-07T14:31:45.955Z,23.30
2018-07-07T14:32:45.917Z,23.90
2018-07-07T14:33:45.953Z,22.70
2018-07-07T14:34:45.952Z,23.50
2018-07-07T14:35:45.971Z,26.40
2018-07-07T14:36:46.008Z,23.10
2018-07-07T14:37:46.016Z,23.40
2018-07-07T14:38:46.033Z,24.20
2018-07-07T14:39:46.065Z,23.30
2018-07-07T14:40:46.078Z,22.70
2018-07-07T14:41:46.099Z,22.50
2018-07-07T14:42:46.122Z,21.30
2018-07-07T14:43:46.146Z,20.40
2018-07-07T14:44:46.156Z,21.20
2018-07-07T14:45:46.227Z,21.30
2018-07-07T14:46:46.211Z,20.80
2018-07-07T14:47:46.216Z,21.80
2018-07-07T14:48:46.241Z,21.30
2018-07-07T14:49:46.266Z,22.00
2018-07-07T14:50:46.283Z,21.70
2018-07-07T14:51:46.325Z,21.30
2018-07-07T14:52:46.342Z,20.30
2018-07-07T14:53:46.352Z,18.70
2018-07-07T14:54:46.378Z,21.70
2018-07-07T14:55:46.391Z,24.40
2018-07-07T14:56:46.413Z,25.20
2018-07-07T14:57:46.439Z,26.60
2018-07-07T14:58:46.452Z,26.50
2018-07-07T14:59:46.471Z,30.00
2018-07-07T15:00:46.496Z,27.40
2018-07-07T15:01:46.528Z,26.40
2018-07-07T15:02:46.541Z,33.70
2018-07-07T15:03:46.553Z,32.20
2018-07-07T15:04:46.579Z,35.00
2018-07-07T15:05:46.602Z,37.40
2018-07-07T15:06:46.639Z,35.90
2018-07-07T15:07:46.643Z,39.20
2018-07-07T15:08:46.686Z,35.40
2018-07-07T15:09:46.684Z,45.80
2018-07-07T15:10:46.705Z,39.20
2018-07-07T15:11:46.730Z,39.60
2018-07-07T15:12:46.757Z,42.40
2018-07-07T15:13:46.793Z,41.90
2018-07-07T15:14:46.791Z,46.60
2018-07-07T15:15:46.835Z,44.30
2018-07-07T15:16:46.843Z,40.80
2018-07-07T15:17:46.851Z,40.50
2018-07-07T15:18:46.877Z,39.30
2018-07-07T15:19:46.905Z,45.10
2018-07-07T15:20:46.930Z,47.90
2018-07-07T15:21:46.946Z,41.50
2018-07-07T15:22:47.042Z,40.40
2018-07-07T15:23:46.994Z,44.10
2018-07-07T15:24:47.005Z,43.30
2018-07-07T15:25:47.025Z,43.80
2018-07-07T15:26:47.059Z,41.40
2018-07-07T15:27:47.087Z,41.60
2018-07-07T15:28:47.096Z,42.40
2018-07-07T15:29:47.158Z,44.20
2018-07-07T15:30:47.140Z,44.90
2018-07-07T15:31:47.162Z,41.60
2018-07-07T15:32:47.188Z,42.40
2018-07-07T15:33:47.214Z,39.80
2018-07-07T15:34:47.242Z,41.00
2018-07-07T15:35:47.247Z,39.50
2018-07-07T15:36:47.272Z,43.00
2018-07-07T15:37:47.304Z,40.70
2018-07-07T15:38:47.323Z,41.10
2018-07-07T15:39:47.335Z,41.10
2018-07-07T15:40:47.362Z,42.20
2018-07-07T15:41:47.393Z,43.90
2018-07-07T15:42:47.401Z,42.20
2018-07-07T15:43:47.425Z,42.00
2018-07-07T15:44:47.449Z,40.50
2018-07-07T15:45:47.470Z,36.70
2018-07-07T15:46:47.495Z,40.20
2018-07-07T15:47:47.519Z,41.70
2018-07-07T15:48:47.532Z,42.40
2018-07-07T15:49:47.550Z,40.20
2018-07-07T15:50:47.581Z,39.20
2018-07-07T15:51:47.601Z,41.20
2018-07-07T15:52:47.622Z,41.10
2018-07-07T15:53:47.645Z,42.50
2018-07-07T15:54:47.668Z,42.40
2018-07-07T15:55:47.680Z,42.20
2018-07-07T15:56:47.711Z,39.70
2018-07-07T15:57:47.725Z,42.50
2018-07-07T15:58:47.755Z,41.00
2018-07-07T15:59:47.773Z,43.30
2018-07-07T16:00:47.790Z,40.50
2018-07-07T16:01:47.829Z,43.10
2018-07-07T16:02:47.862Z,43.70
2018-07-07T16:03:47.866Z,38.50
2018-07-07T16:04:47.884Z,38.70
2018-07-07T16:05:47.910Z,41.90
2018-07-07T16:06:47.927Z,40.30
2018-07-07T16:07:47.951Z,40.70
2018-07-07T16:08:47.969Z,42.20
2018-07-07T16:09:48.026Z,41.40
2018-07-07T16:10:48.008Z,40.70
2018-07-07T16:11:48.052Z,40.60
2018-07-07T16:12:48.061Z,40.50
2018-07-07T16:13:48.089Z,38.40
2018-07-07T16:14:48.135Z,39.60
2018-07-07T16:15:48.131Z,38.70
2018-07-07T16:16:48.153Z,39.60
2018-07-07T16:17:48.181Z,38.60
2018-07-07T16:18:48.187Z,39.00
2018-07-07T16:19:48.213Z,40.90
2018-07-07T16:20:48.234Z,39.60
2018-07-07T16:21:48.279Z,41.20
2018-07-07T16:22:48.267Z,38.90
2018-07-07T16:23:48.300Z,35.30
2018-07-07T16:24:48.315Z,38.60
2018-07-07T16:25:48.342Z,42.10
2018-07-07T16:26:48.371Z,38.80
2018-07-07T16:27:48.390Z,38.50
2018-07-07T16:28:48.405Z,38.30
2018-07-07T16:29:48.427Z,37.80
2018-07-07T16:30:48.447Z,35.40
2018-07-07T16:31:48.474Z,40.80
2018-07-07T16:32:49.216Z,39.40
2018-07-07T16:33:48.519Z,38.50
2018-07-07T16:34:48.563Z,34.50
2018-07-07T16:35:48.556Z,39.40
2018-07-07T16:36:48.580Z,35.60
2018-07-07T16:37:48.600Z,38.30
2018-07-07T16:38:48.628Z,38.50
2018-07-07T16:39:48.643Z,38.50
2018-07-07T16:40:48.675Z,38.70
2018-07-07T16:41:48.689Z,38.40
2018-07-07T16:42:48.730Z,37.40
2018-07-07T16:43:48.727Z,36.50
2018-07-07T16:44:48.759Z,36.20
2018-07-07T16:45:48.778Z,37.00
2018-07-07T16:46:48.794Z,36.20
2018-07-07T16:47:48.819Z,38.20
2018-07-07T16:48:48.865Z,38.50
2018-07-07T16:49:48.859Z,38.00
2018-07-07T16:50:48.898Z,36.90
2018-07-07T16:51:48.910Z,36.40
2018-07-07T16:52:48.931Z,39.10
2018-07-07T16:53:48.964Z,35.60
2018-07-07T16:54:48.974Z,36.30
2018-07-07T16:55:48.994Z,36.60
2018-07-07T16:56:49.028Z,36.10
2018-07-07T16:57:49.040Z,36.50
2018-07-07T16:58:49.063Z,37.60
2018-07-07T16:59:49.087Z,34.30
2018-07-07T17:00:49.120Z,35.10
2018-07-07T17:01:49.141Z,36.50
2018-07-07T17:02:49.149Z,34.30
2018-07-07T17:03:49.176Z,38.80
2018-07-07T17:04:49.197Z,34.80
2018-07-07T17:05:49.210Z,35.80
2018-07-07T17:06:49.239Z,38.40
2018-07-07T17:07:49.258Z,36.00
2018-07-07T17:08:49.275Z,35.00
2018-07-07T17:09:49.298Z,33.30
2018-07-07T17:10:49.325Z,36.00
2018-07-07T17:11:49.367Z,36.40
2018-07-07T17:12:49.361Z,35.50
2018-07-07T17:13:49.387Z,36.70
2018-07-07T17:14:49.410Z,33.60
2018-07-07T17:15:49.437Z,35.30
2018-07-07T17:16:49.456Z,34.80
2018-07-07T17:17:49.484Z,35.20
2018-07-07T17:18:49.501Z,32.30
2018-07-07T17:19:49.514Z,34.80
2018-07-07T17:20:49.541Z,37.50
2018-07-07T17:21:49.567Z,35.00
2018-07-07T17:22:49.585Z,36.10
2018-07-07T17:23:49.625Z,36.20
2018-07-07T17:24:49.629Z,33.40
2018-07-07T17:25:49.642Z,32.80
2018-07-07T17:26:49.677Z,33.30
2018-07-07T17:27:49.687Z,32.60
2018-07-07T17:28:49.721Z,33.00
2018-07-07T17:29:49.767Z,35.10
2018-07-07T17:30:49.760Z,32.00
2018-07-07T17:31:49.775Z,32.80
2018-07-07T17:32:49.806Z,31.70
2018-07-07T17:33:49.829Z,31.80
2018-07-07T17:34:49.844Z,32.70
2018-07-07T17:35:49.868Z,33.90
2018-07-07T17:36:49.928Z,35.10
2018-07-07T17:37:49.904Z,33.20
2018-07-07T17:38:49.945Z,34.30
2018-07-07T17:39:49.953Z,32.10
2018-07-07T17:40:49.992Z,32.30
2018-07-07T17:41:49.997Z,30.30
2018-07-07T17:42:50.022Z,34.00
2018-07-07T17:43:50.068Z,33.20
2018-07-07T17:44:50.075Z,31.00
2018-07-07T17:45:50.095Z,31.50
2018-07-07T17:46:50.103Z,30.90
2018-07-07T17:47:50.128Z,30.00
2018-07-07T17:48:50.148Z,34.40
2018-07-07T17:49:50.175Z,29.70
2018-07-07T17:50:50.198Z,30.90
2018-07-07T17:51:50.217Z,31.00
2018-07-07T17:52:50.229Z,27.40
2018-07-07T17:53:50.255Z,31.30
2018-07-07T17:54:50.280Z,31.30
2018-07-07T17:55:50.303Z,29.80
2018-07-07T17:56:50.325Z,29.80
2018-07-07T17:57:50.346Z,30.80
2018-07-07T17:58:50.360Z,29.40
2018-07-07T17:59:50.386Z,31.90
2018-07-07T18:00:50.410Z,30.80
2018-07-07T18:01:50.428Z,26.30
2018-07-07T18:02:50.458Z,30.00
2018-07-07T18:03:50.480Z,28.20
2018-07-07T18:04:50.498Z,31.20
2018-07-07T18:05:50.519Z,28.60
2018-07-07T18:06:50.540Z,30.80
2018-07-07T18:07:50.565Z,29.60
2018-07-07T18:08:50.586Z,29.90
2018-07-07T18:09:50.605Z,31.10
2018-07-07T18:10:50.631Z,28.10
2018-07-07T18:11:50.665Z,31.20
2018-07-07T18:12:50.671Z,29.90
2018-07-07T18:13:50.699Z,27.50
2018-07-07T18:14:50.731Z,28.90
2018-07-07T18:15:50.737Z,29.00
2018-07-07T18:16:50.760Z,26.70
2018-07-07T18:17:50.833Z,29.50
2018-07-07T18:18:50.813Z,28.70
2018-07-07T18:19:50.822Z,30.60
2018-07-07T18:20:50.848Z,29.60
2018-07-07T18:21:50.873Z,30.30
2018-07-07T18:22:50.892Z,28.60
2018-07-07T18:23:50.930Z,26.70
2018-07-07T18:24:50.929Z,29.10
2018-07-07T18:25:50.963Z,27.30
2018-07-07T18:26:50.973Z,28.30
2018-07-07T18:27:50.995Z,31.50
2018-07-07T18:28:51.027Z,28.90
2018-07-07T18:29:51.036Z,28.70
2018-07-07T18:30:51.086Z,28.70
2018-07-07T18:31:51.130Z,27.60
2018-07-07T18:32:51.099Z,29.70
2018-07-07T18:33:51.133Z,29.20
2018-07-07T18:34:51.142Z,26.20
2018-07-07T18:35:51.169Z,28.50
2018-07-07T18:36:51.197Z,29.60
2018-07-07T18:37:51.376Z,26.00
2018-07-07T18:38:51.250Z,30.30
2018-07-07T18:39:51.279Z,28.20
2018-07-07T18:40:51.284Z,27.10
2018-07-07T18:41:51.297Z,29.40
2018-07-07T18:42:51.325Z,27.90
2018-07-07T18:43:51.348Z,26.20
2018-07-07T18:44:51.368Z,28.60
2018-07-07T18:45:51.385Z,25.70
2018-07-07T18:46:51.493Z,27.40
2018-07-07T18:47:51.426Z,27.40
2018-07-07T18:48:51.461Z,28.60
2018-07-07T18:49:51.486Z,25.80
2018-07-07T18:50:51.492Z,28.50
2018-07-07T18:51:51.526Z,27.30
2018-07-07T18:52:51.598Z,26.90
2018-07-07T18:53:51.575Z,26.00
2018-07-07T18:54:51.588Z,27.20
2018-07-07T18:55:51.601Z,28.60
2018-07-07T18:56:51.660Z,26.30
2018-07-07T18:57:51.647Z,27.30
2018-07-07T18:58:51.666Z,23.70
2018-07-07T18:59:51.693Z,26.50
2018-07-07T19:00:51.706Z,25.90
2018-07-07T19:01:51.765Z,26.10
2018-07-07T19:02:51.765Z,25.40
2018-07-07T19:03:51.790Z,27.10
2018-07-07T19:04:51.821Z,26.20
2018-07-07T19:05:51.854Z,26.20
2018-07-07T19:06:51.847Z,24.40
2018-07-07T19:07:51.870Z,26.80
2018-07-07T19:08:51.896Z,27.80
2018-07-07T19:09:51.902Z,25.60
2018-07-07T19:10:51.938Z,25.00
2018-07-07T19:11:51.955Z,26.60
2018-07-07T19:12:51.986Z,26.50
2018-07-07T19:13:51.994Z,23.80
2018-07-07T19:14:52.029Z,26.20
2018-07-07T19:15:52.039Z,25.70
2018-07-07T19:16:52.133Z,25.50
2018-07-07T19:17:52.089Z,26.60
2018-07-07T19:18:52.124Z,27.10
2018-07-07T19:19:52.127Z,24.40
2018-07-07T19:20:52.151Z,24.40
2018-07-07T19:21:52.176Z,26.50
2018-07-07T19:22:52.191Z,24.70
2018-07-07T19:23:52.210Z,27.10
2018-07-07T19:24:52.233Z,25.10
2018-07-07T19:25:52.266Z,26.50
2018-07-07T19:26:52.282Z,25.20
2018-07-07T19:27:52.301Z,24.70
2018-07-07T19:28:52.325Z,24.50
2018-07-07T19:29:52.345Z,25.10
2018-07-07T19:30:52.364Z,24.00
2018-07-07T19:31:52.379Z,25.70
2018-07-07T19:32:52.416Z,23.20
2018-07-07T19:33:52.441Z,23.00
2018-07-07T19:34:52.445Z,23.90
2018-07-07T19:35:52.470Z,24.20
2018-07-07T19:36:52.490Z,22.60
2018-07-07T19:37:52.507Z,23.10
2018-07-07T19:38:52.532Z,22.90
2018-07-07T19:39:52.562Z,22.60
2018-07-07T19:40:52.580Z,24.10
2018-07-07T19:41:52.601Z,23.10
2018-07-07T19:42:52.623Z,24.10
2018-07-07T19:43:52.650Z,23.70
2018-07-07T19:44:52.671Z,25.30
2018-07-07T19:45:52.692Z,25.10
2018-07-07T19:46:52.718Z,23.80
2018-07-07T19:47:52.731Z,24.10
2018-07-07T19:48:52.760Z,25.40
2018-07-07T19:49:52.781Z,24.90
2018-07-07T19:50:52.799Z,26.10
2018-07-07T19:51:52.838Z,24.20
2018-07-07T19:52:52.842Z,24.70
2018-07-07T19:53:52.897Z,24.10
2018-07-07T19:54:52.887Z,19.90
2018-07-07T19:55:52.905Z,26.30
2018-07-07T19:56:52.925Z,23.70
2018-07-07T19:57:52.958Z,23.70
2018-07-07T19:58:52.979Z,21.50
2018-07-07T19:59:53.026Z,22.50
2018-07-07T20:00:53.103Z,22.40
2018-07-07T20:01:53.043Z,22.00
2018-07-07T20:02:53.054Z,24.00
2018-07-07T20:03:53.089Z,23.30
2018-07-07T20:04:53.120Z,23.80
2018-07-07T20:05:53.133Z,22.80
2018-07-07T20:06:53.154Z,23.90
2018-07-07T20:07:53.197Z,22.50
2018-07-07T20:08:53.188Z,23.10
2018-07-07T20:09:53.202Z,23.60
2018-07-07T20:10:53.225Z,24.30
2018-07-07T20:11:53.266Z,24.20
2018-07-07T20:12:53.273Z,22.80
2018-07-07T20:13:53.294Z,23.80
2018-07-07T20:14:53.312Z,23.20
2018-07-07T20:15:53.344Z,22.10
2018-07-07T20:16:53.360Z,24.10
2018-07-07T20:17:53.377Z,21.50
2018-07-07T20:18:53.405Z,22.70
2018-07-07T20:19:53.464Z,21.80
2018-07-07T20:20:53.463Z,23.00
2018-07-07T20:21:53.469Z,22.20
2018-07-07T20:22:53.496Z,23.70
2018-07-07T20:23:53.514Z,24.60
2018-07-07T20:24:53.525Z,22.30
2018-07-07T20:25:53.545Z,22.90
2018-07-07T20:26:53.575Z,22.10
2018-07-07T20:27:53.592Z,22.40
2018-07-07T20:28:53.614Z,23.00
2018-07-07T20:29:53.636Z,22.90
2018-07-07T20:30:53.664Z,21.30
2018-07-07T20:31:53.683Z,21.90
2018-07-07T20:32:53.709Z,21.70
2018-07-07T20:33:53.727Z,21.50
2018-07-07T20:34:53.739Z,20.80
2018-07-07T20:35:53.773Z,21.10
2018-07-07T20:36:53.793Z,21.40
2018-07-07T20:37:53.807Z,21.50
2018-07-07T20:38:53.829Z,21.10
2018-07-07T20:39:53.864Z,21.20
2018-07-07T20:40:53.880Z,21.40
2018-07-07T20:41:53.894Z,22.00
2018-07-07T20:42:53.922Z,21.60
2018-07-07T20:43:53.941Z,23.80
2018-07-07T20:44:53.968Z,20.30
2018-07-07T20:45:53.995Z,20.60
2018-07-07T20:46:54.006Z,22.40
2018-07-07T20:47:54.029Z,21.00
2018-07-07T20:48:54.046Z,19.90
2018-07-07T20:49:54.066Z,21.80
2018-07-07T20:50:54.097Z,21.50
2018-07-07T20:51:54.117Z,21.00
2018-07-07T20:52:54.141Z,20.40
2018-07-07T20:53:54.159Z,21.10
2018-07-07T20:54:54.173Z,20.70
2018-07-07T20:55:54.209Z,23.20
2018-07-07T20:56:54.276Z,20.40
2018-07-07T20:57:54.244Z,20.30
2018-07-07T20:58:54.272Z,21.00
2018-07-07T20:59:54.295Z,19.40
2018-07-07T21:00:54.311Z,18.90
2018-07-07T21:01:54.339Z,19.90
2018-07-07T21:02:54.361Z,20.70
2018-07-07T21:03:54.395Z,22.90
2018-07-07T21:04:54.427Z,19.80
2018-07-07T21:05:54.418Z,21.20
2018-07-07T21:06:54.437Z,19.90
2018-07-07T21:07:54.461Z,21.40
2018-07-07T21:08:54.489Z,18.90
2018-07-07T21:09:54.513Z,20.80
2018-07-07T21:10:54.536Z,20.30
2018-07-07T21:11:54.565Z,19.80
2018-07-07T21:12:54.585Z,19.30
2018-07-07T21:13:54.591Z,20.00
2018-07-07T21:14:54.614Z,21.00
2018-07-07T21:15:54.640Z,20.00
2018-07-07T21:16:54.671Z,18.90
2018-07-07T21:17:54.722Z,20.80
2018-07-07T21:18:54.698Z,20.60
2018-07-07T21:19:54.726Z,20.70
2018-07-07T21:20:54.750Z,20.30
2018-07-07T21:21:54.766Z,18.90
2018-07-07T21:22:54.803Z,20.40
2018-07-07T21:23:54.809Z,18.30
2018-07-07T21:24:54.822Z,19.50
2018-07-07T21:25:54.852Z,20.80
2018-07-07T21:26:54.877Z,19.00
2018-07-07T21:27:54.899Z,20.40
2018-07-07T21:28:54.917Z,18.50
2018-07-07T21:29:54.946Z,18.80
2018-07-07T21:30:54.960Z,17.60
2018-07-07T21:31:54.981Z,19.40
2018-07-07T21:32:55.050Z,18.40
2018-07-07T21:33:55.027Z,20.30
2018-07-07T21:34:55.048Z,19.20
2018-07-07T21:35:55.071Z,19.70
2018-07-07T21:36:55.099Z,18.60
2018-07-07T21:37:55.127Z,18.90
2018-07-07T21:38:55.133Z,18.90
2018-07-07T21:39:55.148Z,19.80
2018-07-07T21:40:55.180Z,20.20
2018-07-07T21:41:55.191Z,18.30
2018-07-07T21:42:55.219Z,20.60
2018-07-07T21:43:55.244Z,18.90
2018-07-07T21:44:55.256Z,19.10
2018-07-07T21:45:55.289Z,19.50
2018-07-07T21:46:55.313Z,18.30
2018-07-07T21:47:55.329Z,16.80
2018-07-07T21:48:55.351Z,16.60
2018-07-07T21:49:55.374Z,18.00
2018-07-07T21:50:55.474Z,19.80
2018-07-07T21:51:55.425Z,17.50
2018-07-07T21:52:55.465Z,17.50
2018-07-07T21:53:55.684Z,18.20
2018-07-07T21:54:55.481Z,18.30
2018-07-07T21:55:55.495Z,19.20
2018-07-07T21:56:55.519Z,21.40
2018-07-07T21:57:55.549Z,17.90
2018-07-07T21:58:55.569Z,17.70
2018-07-07T21:59:55.586Z,18.30
2018-07-07T22:00:55.613Z,17.80
2018-07-07T22:01:55.629Z,18.70
2018-07-07T22:02:55.693Z,19.50
2018-07-07T22:03:55.681Z,18.50
2018-07-07T22:04:55.731Z,18.70
2018-07-07T22:05:55.720Z,18.10
2018-07-07T22:06:55.743Z,18.10
2018-07-07T22:07:55.759Z,19.20
2018-07-07T22:08:55.778Z,16.10
2018-07-07T22:09:55.804Z,16.50
2018-07-07T22:10:55.826Z,18.60
2018-07-07T22:11:55.851Z,16.10
2018-07-07T22:12:55.883Z,17.10
2018-07-07T22:13:55.897Z,18.00
2018-07-07T22:14:55.921Z,18.10
2018-07-07T22:15:55.944Z,17.50
2018-07-07T22:16:55.960Z,17.70
2018-07-07T22:17:55.975Z,17.10
2018-07-07T22:18:55.996Z,17.90
2018-07-07T22:19:56.018Z,16.30
2018-07-07T22:20:56.047Z,16.50
2018-07-07T22:21:56.083Z,15.70
2018-07-07T22:22:56.082Z,15.20
2018-07-07T22:23:56.098Z,18.50
2018-07-07T22:24:56.131Z,18.60
2018-07-07T22:25:56.145Z,15.40
2018-07-07T22:26:56.268Z,18.20
2018-07-07T22:27:56.182Z,17.60
2018-07-07T22:28:56.226Z,17.70
2018-07-07T22:29:56.276Z,18.60
2018-07-07T22:30:56.245Z,17.20
2018-07-07T22:31:56.284Z,17.10
2018-07-07T22:32:56.302Z,16.80
2018-07-07T22:33:56.340Z,16.70
2018-07-07T22:34:56.365Z,17.40
2018-07-07T22:35:56.386Z,16.40
2018-07-07T22:36:56.386Z,16.80
2018-07-07T22:37:56.395Z,16.40
2018-07-07T22:38:56.456Z,16.40
2018-07-07T22:39:56.451Z,15.70
2018-07-07T22:40:56.470Z,16.20
2018-07-07T22:41:56.495Z,17.80
2018-07-07T22:42:56.521Z,16.00
2018-07-07T22:43:56.528Z,16.90
2018-07-07T22:44:56.557Z,16.90
2018-07-07T22:45:56.605Z,17.20
2018-07-07T22:46:56.600Z,15.60
2018-07-07T22:47:56.617Z,15.70
2018-07-07T22:48:56.643Z,15.80
2018-07-07T22:49:56.662Z,17.10
2018-07-07T22:50:56.690Z,16.70
2018-07-07T22:51:56.699Z,17.20
2018-07-07T22:52:56.728Z,16.10
2018-07-07T22:53:56.747Z,17.60
2018-07-07T22:54:56.769Z,16.20
2018-07-07T22:55:56.801Z,16.60
2018-07-07T22:56:56.822Z,15.60
2018-07-07T22:57:56.853Z,16.20
2018-07-07T22:58:56.861Z,16.30
2018-07-07T22:59:56.885Z,16.40
2018-07-07T23:00:56.906Z,17.40
2018-07-07T23:01:56.914Z,15.90
2018-07-07T23:02:56.944Z,16.30
2018-07-07T23:03:56.979Z,15.80
2018-07-07T23:04:57.009Z,15.70
2018-07-07T23:05:57.014Z,16.30
2018-07-07T23:06:57.039Z,16.00
2018-07-07T23:07:57.052Z,15.70
2018-07-07T23:08:57.083Z,16.60
2018-07-07T23:09:57.100Z,16.00
2018-07-07T23:10:57.110Z,15.10
2018-07-07T23:11:57.142Z,15.60
2018-07-07T23:12:57.157Z,17.20
2018-07-07T23:13:57.191Z,17.50
2018-07-07T23:14:57.239Z,17.00
2018-07-07T23:15:57.285Z,16.10
2018-07-07T23:16:57.251Z,15.70
2018-07-07T23:17:57.271Z,16.10
2018-07-07T23:18:57.293Z,15.40
2018-07-07T23:19:57.329Z,15.50
2018-07-07T23:20:57.357Z,15.60
2018-07-07T23:21:57.358Z,15.00
2018-07-07T23:22:57.387Z,14.20
2018-07-07T23:23:57.404Z,15.20
2018-07-07T23:24:57.427Z,16.50
2018-07-07T23:25:57.469Z,16.80
2018-07-07T23:26:57.464Z,15.70
2018-07-07T23:27:57.497Z,16.20
2018-07-07T23:28:57.507Z,16.00
2018-07-07T23:29:57.528Z,15.20
2018-07-07T23:30:57.555Z,16.70
2018-07-07T23:31:57.567Z,16.60
2018-07-07T23:32:57.591Z,17.30
2018-07-07T23:33:57.615Z,18.00
2018-07-07T23:34:57.640Z,20.30
2018-07-07T23:35:57.661Z,17.40
2018-07-07T23:36:57.687Z,16.20
2018-07-07T23:37:57.705Z,16.00
2018-07-07T23:38:57.732Z,16.20
2018-07-07T23:39:57.739Z,17.50
2018-07-07T23:40:57.755Z,16.30
2018-07-07T23:41:57.795Z,16.70
2018-07-07T23:42:57.824Z,16.30
2018-07-07T23:43:57.817Z,16.70
2018-07-07T23:44:57.853Z,15.90
2018-07-07T23:45:57.871Z,17.10
2018-07-07T23:46:57.895Z,17.40
2018-07-07T23:47:57.906Z,16.40
2018-07-07T23:48:57.942Z,17.70
2018-07-07T23:49:57.969Z,17.30
2018-07-07T23:50:57.979Z,15.60
2018-07-07T23:51:58.006Z,17.80
2018-07-07T23:52:58.026Z,14.20
2018-07-07T23:53:58.041Z,16.10
2018-07-07T23:54:58.062Z,17.90
2018-07-07T23:55:58.090Z,15.50
2018-07-07T23:56:58.109Z,15.10
2018-07-07T23:57:58.127Z,16.70
2018-07-07T23:58:58.153Z,16.20
2018-07-07T23:59:58.174Z,15.60
